createdAt,value
2022-09-15T00:00:55.971Z,84.45
2022-09-15T00:02:27.525Z,84.52
2022-09-15T00:03:59.184Z,84.23
2022-09-15T00:05:30.607Z,84.67
2022-09-15T00:07:02.142Z,84.53
2022-09-15T00:08:33.862Z,84.69
2022-09-15T00:10:06.126Z,84.82
2022-09-15T00:11:38.009Z,84.98
2022-09-15T00:13:09.452Z,85.31
2022-09-15T00:14:40.927Z,85.44
2022-09-15T00:16:15.353Z,85.11
2022-09-15T00:17:49.551Z,85.37
2022-09-15T00:19:21.035Z,85.42
2022-09-15T00:20:52.572Z,85.35
2022-09-15T00:22:24.042Z,85.20
2022-09-15T00:23:55.878Z,85.24
2022-09-15T00:25:27.340Z,84.97
2022-09-15T00:26:58.787Z,85.47
2022-09-15T00:28:31.686Z,85.35
2022-09-15T00:30:03.794Z,85.17
2022-09-15T00:31:36.603Z,84.93
2022-09-15T00:33:08.027Z,85.04
2022-09-15T00:34:39.505Z,84.95
2022-09-15T00:36:11.811Z,85.42
2022-09-15T00:37:43.316Z,85.01
2022-09-15T00:39:14.782Z,85.23
2022-09-15T00:40:47.578Z,85.50
2022-09-15T00:42:20.016Z,85.46
2022-09-15T00:43:54.341Z,85.19
2022-09-15T00:45:26.084Z,85.36
2022-09-15T00:47:18.380Z,85.63
2022-09-15T00:48:54.068Z,85.59
2022-09-15T00:50:25.664Z,85.52
2022-09-15T00:51:59.352Z,85.57
2022-09-15T00:53:31.623Z,85.37
2022-09-15T00:55:05.872Z,85.23
2022-09-15T00:56:38.466Z,85.54
2022-09-15T00:58:11.965Z,85.44
2022-09-15T00:59:44.523Z,85.83
2022-09-15T01:01:16.089Z,85.33
2022-09-15T01:02:49.295Z,85.20
2022-09-15T01:04:20.907Z,85.06
2022-09-15T01:05:54.698Z,85.09
2022-09-15T01:07:32.247Z,84.90
2022-09-15T01:09:07.573Z,84.74
2022-09-15T01:10:39.965Z,84.34
2022-09-15T01:12:11.426Z,84.04
2022-09-15T01:13:43.089Z,83.97
2022-09-15T01:15:15.040Z,83.55
2022-09-15T01:16:51.975Z,83.11
2022-09-15T01:18:31.872Z,82.91
2022-09-15T01:20:21.756Z,82.98
2022-09-15T01:21:59.013Z,83.11
2022-09-15T01:24:02.261Z,83.07
2022-09-15T01:25:45.151Z,83.01
2022-09-15T01:27:41.618Z,82.79
2022-09-15T01:29:34.871Z,82.53
2022-09-15T01:31:09.146Z,82.68
2022-09-15T01:33:04.341Z,82.21
2022-09-15T01:34:40.480Z,82.45
2022-09-15T01:36:14.258Z,82.15
2022-09-15T01:37:49.539Z,82.04
2022-09-15T01:39:23.415Z,82.17
2022-09-15T01:40:57.463Z,82.16
2022-09-15T01:42:31.005Z,82.37
2022-09-15T01:44:05.366Z,82.54
2022-09-15T01:45:38.969Z,82.62
2022-09-15T01:47:13.760Z,82.31
2022-09-15T01:48:46.660Z,82.65
2022-09-15T01:50:21.001Z,82.21
2022-09-15T01:51:53.260Z,82.07
2022-09-15T01:53:24.686Z,82.03
2022-09-15T01:54:57.755Z,82.19
2022-09-15T01:56:29.297Z,82.15
2022-09-15T01:58:00.768Z,82.30
2022-09-15T01:59:33.487Z,82.11
2022-09-15T02:01:07.414Z,81.92
2022-09-15T02:02:43.959Z,82.11
2022-09-15T02:04:18.281Z,81.67
2022-09-15T02:05:52.750Z,81.53
2022-09-15T02:07:31.136Z,81.55
2022-09-15T02:09:04.525Z,81.48
2022-09-15T02:10:41.043Z,81.70
2022-09-15T02:12:19.894Z,81.57
2022-09-15T02:13:55.472Z,81.47
2022-09-15T02:15:29.104Z,81.64
2022-09-15T02:17:02.024Z,81.24
2022-09-15T02:18:37.715Z,81.16
2022-09-15T02:20:15.506Z,81.14
2022-09-15T02:21:59.403Z,81.08
2022-09-15T02:23:32.781Z,80.98
2022-09-15T02:25:05.702Z,80.95
2022-09-15T02:26:39.087Z,81.05
2022-09-15T02:28:11.722Z,80.80
2022-09-15T02:29:44.674Z,81.09
2022-09-15T02:31:20.918Z,81.09
2022-09-15T02:32:56.035Z,81.30
2022-09-15T02:34:31.139Z,81.45
2022-09-15T02:36:03.467Z,81.08
2022-09-15T02:37:36.306Z,81.00
2022-09-15T02:39:09.182Z,81.25
2022-09-15T02:40:43.149Z,81.37
2022-09-15T02:42:21.932Z,81.13
2022-09-15T02:43:53.370Z,81.15
2022-09-15T02:45:25.782Z,80.67
2022-09-15T02:46:57.450Z,80.70
2022-09-15T02:48:28.935Z,80.72
2022-09-15T02:50:01.902Z,80.55
2022-09-15T02:51:33.804Z,80.55
2022-09-15T02:53:05.325Z,80.48
2022-09-15T02:54:36.799Z,80.22
2022-09-15T02:56:08.243Z,80.28
2022-09-15T02:57:39.698Z,80.45
2022-09-15T02:59:11.097Z,80.69
2022-09-15T03:00:42.675Z,80.26
2022-09-15T03:02:14.311Z,80.23
2022-09-15T03:03:46.284Z,80.53
2022-09-15T03:05:20.353Z,80.37
2022-09-15T03:06:51.801Z,80.59
2022-09-15T03:08:23.283Z,80.38
2022-09-15T03:09:54.744Z,80.43
2022-09-15T03:11:27.535Z,80.28
2022-09-15T03:12:59.170Z,80.22
2022-09-15T03:14:32.485Z,80.37
2022-09-15T03:16:06.690Z,80.06
2022-09-15T03:17:39.339Z,80.14
2022-09-15T03:19:10.807Z,80.10
2022-09-15T03:20:43.596Z,80.22
2022-09-15T03:22:15.153Z,80.16
2022-09-15T03:23:46.659Z,80.17
2022-09-15T03:25:18.298Z,80.05
2022-09-15T03:26:49.754Z,79.97
2022-09-15T03:28:21.250Z,79.63
2022-09-15T03:29:52.965Z,79.72
2022-09-15T03:31:24.493Z,80.29
2022-09-15T03:32:56.241Z,80.55
2022-09-15T03:34:27.648Z,80.52
2022-09-15T03:36:00.553Z,80.41
2022-09-15T03:37:32.013Z,80.45
2022-09-15T03:39:03.762Z,80.83
2022-09-15T03:40:37.673Z,80.77
2022-09-15T03:42:09.142Z,80.74
2022-09-15T03:43:41.402Z,80.56
2022-09-15T03:45:12.850Z,81.04
2022-09-15T03:46:44.514Z,81.13
2022-09-15T03:48:15.992Z,81.35
2022-09-15T03:49:47.567Z,81.68
2022-09-15T03:51:20.631Z,81.64
2022-09-15T03:52:54.585Z,81.59
2022-09-15T03:54:29.548Z,81.64
2022-09-15T03:56:07.627Z,81.34
2022-09-15T03:57:39.084Z,81.35
2022-09-15T03:59:10.545Z,81.17
2022-09-15T04:00:42.338Z,80.63
2022-09-15T04:02:14.374Z,80.32
2022-09-15T04:03:50.653Z,80.04
2022-09-15T04:05:22.783Z,80.06
2022-09-15T04:06:55.601Z,79.54
2022-09-15T04:08:27.296Z,79.21
2022-09-15T04:09:58.851Z,79.61
2022-09-15T04:11:30.885Z,79.12
2022-09-15T04:13:02.333Z,79.72
2022-09-15T04:14:34.137Z,79.70
2022-09-15T04:16:06.528Z,79.67
2022-09-15T04:17:37.994Z,79.25
2022-09-15T04:19:09.463Z,79.54
2022-09-15T04:20:41.358Z,79.37
2022-09-15T04:22:17.652Z,79.32
2022-09-15T04:23:49.638Z,79.50
2022-09-15T04:25:21.096Z,79.38
2022-09-15T04:26:52.532Z,79.21
2022-09-15T04:28:24.149Z,79.07
2022-09-15T04:29:55.808Z,78.91
2022-09-15T04:31:27.325Z,78.76
2022-09-15T04:32:58.921Z,78.61
2022-09-15T04:34:30.361Z,79.37
2022-09-15T04:36:02.732Z,79.01
2022-09-15T04:37:35.537Z,78.75
2022-09-15T04:39:07.086Z,78.30
2022-09-15T04:40:38.552Z,78.54
2022-09-15T04:42:10.022Z,78.52
2022-09-15T04:43:41.913Z,78.63
2022-09-15T04:45:13.434Z,78.18
2022-09-15T04:46:44.978Z,78.08
2022-09-15T04:48:16.771Z,78.29
2022-09-15T04:49:48.422Z,77.98
2022-09-15T04:51:21.000Z,77.91
2022-09-15T04:52:54.112Z,78.22
2022-09-15T04:54:25.661Z,77.92
2022-09-15T04:56:04.047Z,77.83
2022-09-15T04:57:35.475Z,78.10
2022-09-15T04:59:13.133Z,78.38
2022-09-15T05:00:44.682Z,78.11
2022-09-15T05:02:16.265Z,77.99
2022-09-15T05:03:48.139Z,78.18
2022-09-15T05:05:19.625Z,78.71
2022-09-15T05:06:51.191Z,79.33
2022-09-15T05:08:24.099Z,79.96
2022-09-15T05:09:55.586Z,79.59
2022-09-15T05:11:28.289Z,78.95
2022-09-15T05:13:00.027Z,78.11
2022-09-15T05:14:31.857Z,77.95
2022-09-15T05:16:04.309Z,78.03
2022-09-15T05:17:35.839Z,78.28
2022-09-15T05:19:07.370Z,78.73
2022-09-15T05:20:38.839Z,78.92
2022-09-15T05:22:10.398Z,78.74
2022-09-15T05:23:43.708Z,78.54
2022-09-15T05:25:15.303Z,79.39
2022-09-15T05:26:47.041Z,79.24
2022-09-15T05:28:18.495Z,79.67
2022-09-15T05:29:50.001Z,79.75
2022-09-15T05:31:22.641Z,79.71
2022-09-15T05:32:54.199Z,80.22
2022-09-15T05:34:25.687Z,81.64
2022-09-15T05:35:58.031Z,82.14
2022-09-15T05:37:29.513Z,79.20
2022-09-15T05:39:02.404Z,78.92
2022-09-15T05:40:33.910Z,78.23
2022-09-15T05:42:05.737Z,78.19
2022-09-15T05:43:37.846Z,78.67
2022-09-15T05:45:10.051Z,78.53
2022-09-15T05:46:41.603Z,78.31
2022-09-15T05:48:13.433Z,78.76
2022-09-15T05:49:44.969Z,78.86
2022-09-15T05:51:16.459Z,78.34
2022-09-15T05:52:50.817Z,78.37
2022-09-15T05:54:23.843Z,78.65
2022-09-15T05:55:55.804Z,78.64
2022-09-15T05:57:27.300Z,78.27
2022-09-15T05:58:58.921Z,78.52
2022-09-15T06:00:30.361Z,78.25
2022-09-15T06:02:02.048Z,78.71
2022-09-15T06:03:33.862Z,78.29
2022-09-15T06:05:05.907Z,78.94
2022-09-15T06:06:37.511Z,78.85
2022-09-15T06:08:09.516Z,78.25
2022-09-15T06:09:42.521Z,77.85
2022-09-15T06:11:15.548Z,78.41
2022-09-15T06:12:47.117Z,78.55
2022-09-15T06:14:18.606Z,79.07
2022-09-15T06:15:50.269Z,79.86
2022-09-15T06:17:23.064Z,80.12
2022-09-15T06:18:54.650Z,80.45
2022-09-15T06:20:26.178Z,80.64
2022-09-15T06:21:57.689Z,80.67
2022-09-15T06:23:29.279Z,80.87
2022-09-15T06:25:02.066Z,80.80
2022-09-15T06:26:33.698Z,80.51
2022-09-15T06:28:05.178Z,80.26
2022-09-15T06:29:36.953Z,80.80
2022-09-15T06:31:12.325Z,80.68
2022-09-15T06:32:47.943Z,80.63
2022-09-15T06:34:19.894Z,80.81
2022-09-15T06:35:51.369Z,80.63
2022-09-15T06:37:22.828Z,80.92
2022-09-15T06:38:54.631Z,80.69
2022-09-15T06:40:27.533Z,80.53
2022-09-15T06:42:02.784Z,80.27
2022-09-15T06:43:36.367Z,80.14
2022-09-15T06:45:08.279Z,80.31
2022-09-15T06:46:39.752Z,80.64
2022-09-15T06:48:23.819Z,80.40
2022-09-15T06:49:56.397Z,80.02
2022-09-15T06:51:35.547Z,80.04
2022-09-15T06:53:07.054Z,79.76
2022-09-15T06:54:38.730Z,79.78
2022-09-15T06:56:13.079Z,79.85
2022-09-15T06:57:44.566Z,79.98
2022-09-15T06:59:16.667Z,79.61
2022-09-15T07:00:48.132Z,79.69
2022-09-15T07:02:19.725Z,79.67
2022-09-15T07:03:51.421Z,79.23
2022-09-15T07:05:25.121Z,79.14
2022-09-15T07:06:56.643Z,79.05
2022-09-15T07:08:28.159Z,78.97
2022-09-15T07:10:00.895Z,78.74
2022-09-15T07:11:33.805Z,78.49
2022-09-15T07:13:05.287Z,78.36
2022-09-15T07:14:36.767Z,77.68
2022-09-15T07:16:09.706Z,77.53
2022-09-15T07:17:41.253Z,77.27
2022-09-15T07:19:12.944Z,77.36
2022-09-15T07:20:44.542Z,77.03
2022-09-15T07:22:16.064Z,77.13
2022-09-15T07:23:48.182Z,77.42
2022-09-15T07:25:19.639Z,77.24
2022-09-15T07:26:52.486Z,77.66
2022-09-15T07:28:23.933Z,77.55
2022-09-15T07:29:55.376Z,77.05
2022-09-15T07:31:27.905Z,76.06
2022-09-15T07:32:59.411Z,76.35
2022-09-15T07:34:31.036Z,76.45
2022-09-15T07:36:02.943Z,77.25
2022-09-15T07:37:34.441Z,77.00
2022-09-15T07:39:06.020Z,76.71
2022-09-15T07:40:38.168Z,76.65
2022-09-15T07:42:11.305Z,75.89
2022-09-15T07:43:45.120Z,76.12
2022-09-15T07:45:16.782Z,76.46
2022-09-15T07:46:48.267Z,76.58
2022-09-15T07:48:23.270Z,76.66
2022-09-15T07:49:58.237Z,77.25
2022-09-15T07:51:29.679Z,77.47
2022-09-15T07:53:01.297Z,77.14
2022-09-15T07:54:32.842Z,76.12
2022-09-15T07:56:04.485Z,76.84
2022-09-15T07:57:37.567Z,76.57
2022-09-15T07:59:08.988Z,76.42
2022-09-15T08:00:40.502Z,76.61
2022-09-15T08:02:15.662Z,76.49
2022-09-15T08:03:48.930Z,75.95
2022-09-15T08:05:20.564Z,75.11
2022-09-15T08:06:52.766Z,74.29
2022-09-15T08:08:24.223Z,74.16
2022-09-15T08:09:55.710Z,73.95
2022-09-15T08:11:27.526Z,73.46
2022-09-15T08:13:00.615Z,73.65
2022-09-15T08:14:32.829Z,73.86
2022-09-15T08:16:05.159Z,73.05
2022-09-15T08:17:36.627Z,73.71
2022-09-15T08:19:08.137Z,73.60
2022-09-15T08:20:39.894Z,73.35
2022-09-15T08:22:11.392Z,73.34
2022-09-15T08:23:42.946Z,72.52
2022-09-15T08:25:14.738Z,72.07
2022-09-15T08:26:47.147Z,71.41
2022-09-15T08:28:20.057Z,71.86
2022-09-15T08:29:51.686Z,72.40
2022-09-15T08:31:24.425Z,72.80
2022-09-15T08:32:56.345Z,72.13
2022-09-15T08:34:29.660Z,72.05
2022-09-15T08:36:02.171Z,72.13
2022-09-15T08:37:34.192Z,71.72
2022-09-15T08:39:06.269Z,71.58
2022-09-15T08:40:38.033Z,71.34
2022-09-15T08:42:14.378Z,71.78
2022-09-15T08:43:49.988Z,71.82
2022-09-15T08:45:24.383Z,71.43
2022-09-15T08:46:59.398Z,71.59
2022-09-15T08:48:34.117Z,70.56
2022-09-15T08:50:11.691Z,70.53
2022-09-15T08:51:46.147Z,70.20
2022-09-15T08:53:19.913Z,70.24
2022-09-15T08:54:53.060Z,70.22
2022-09-15T08:56:24.769Z,70.22
2022-09-15T08:57:56.260Z,69.39
2022-09-15T08:59:31.847Z,68.95
2022-09-15T09:01:06.087Z,69.00
2022-09-15T09:02:49.789Z,69.32
2022-09-15T09:04:30.320Z,69.15
2022-09-15T09:06:06.279Z,69.01
2022-09-15T09:07:51.028Z,67.86
2022-09-15T09:09:29.443Z,67.25
2022-09-15T09:11:04.662Z,67.36
2022-09-15T09:12:42.583Z,67.75
2022-09-15T09:14:18.747Z,67.62
2022-09-15T09:16:00.030Z,65.67
2022-09-15T09:17:39.630Z,67.34
2022-09-15T09:19:20.907Z,66.32
2022-09-15T09:20:58.538Z,64.60
2022-09-15T09:22:33.075Z,63.09
2022-09-15T09:24:05.842Z,62.96
2022-09-15T09:25:38.293Z,60.47
2022-09-15T09:27:12.947Z,60.90
2022-09-15T09:28:47.413Z,62.90
2022-09-15T09:30:21.041Z,60.88
2022-09-15T09:31:56.268Z,61.20
2022-09-15T09:33:30.288Z,62.09
2022-09-15T09:35:03.791Z,62.65
2022-09-15T09:36:35.353Z,60.92
2022-09-15T09:38:08.731Z,61.61
2022-09-15T09:39:40.231Z,60.23
2022-09-15T09:41:12.976Z,59.73
2022-09-15T09:42:44.749Z,60.66
2022-09-15T09:44:16.295Z,59.77
2022-09-15T09:45:47.868Z,59.21
2022-09-15T09:47:21.492Z,58.91
2022-09-15T09:48:54.672Z,58.69
2022-09-15T09:50:36.030Z,58.88
2022-09-15T09:52:07.692Z,58.91
2022-09-15T09:53:39.162Z,59.14
2022-09-15T09:55:20.252Z,58.59
2022-09-15T09:56:52.597Z,58.12
2022-09-15T09:58:25.242Z,58.06
2022-09-15T09:59:56.764Z,58.06
2022-09-15T10:01:28.513Z,58.10
2022-09-15T10:03:08.987Z,56.80
2022-09-15T10:04:41.716Z,57.74
2022-09-15T10:06:15.113Z,58.06
2022-09-15T10:07:46.789Z,56.92
2022-09-15T10:09:19.317Z,56.91
2022-09-15T10:10:51.508Z,57.78
2022-09-15T10:12:24.586Z,56.49
2022-09-15T10:13:56.424Z,57.77
2022-09-15T10:15:28.813Z,57.35
2022-09-15T10:17:01.657Z,56.95
2022-09-15T10:18:36.949Z,55.40
2022-09-15T10:20:21.472Z,56.13
2022-09-15T10:21:53.505Z,56.41
2022-09-15T10:23:26.322Z,57.24
2022-09-15T10:24:58.563Z,57.00
2022-09-15T10:26:32.104Z,55.86
2022-09-15T10:28:11.917Z,56.31
2022-09-15T10:29:43.435Z,53.32
2022-09-15T10:31:25.717Z,53.26
2022-09-15T10:33:17.300Z,53.93
2022-09-15T10:34:58.276Z,54.41
2022-09-15T10:36:30.952Z,55.81
2022-09-15T10:38:04.976Z,54.97
2022-09-15T10:39:43.315Z,54.96
2022-09-15T10:41:20.664Z,56.58
2022-09-15T10:42:53.347Z,55.99
2022-09-15T10:44:30.372Z,54.57
2022-09-15T10:46:03.900Z,55.41
2022-09-15T10:47:41.542Z,53.13
2022-09-15T10:49:20.190Z,51.69
2022-09-15T10:50:55.984Z,52.97
2022-09-15T10:52:34.339Z,53.82
2022-09-15T10:54:15.093Z,52.53
2022-09-15T10:55:53.567Z,53.80
2022-09-15T10:57:32.461Z,53.64
2022-09-15T10:59:11.661Z,54.62
2022-09-15T11:00:46.508Z,56.57
2022-09-15T11:02:35.693Z,56.32
2022-09-15T11:04:27.865Z,55.49
2022-09-15T11:06:09.672Z,55.34
2022-09-15T11:07:46.122Z,53.88
2022-09-15T11:09:20.336Z,55.13
2022-09-15T11:10:57.261Z,54.61
2022-09-15T11:12:36.415Z,52.76
2022-09-15T11:14:17.324Z,52.85
2022-09-15T11:15:54.646Z,49.39
2022-09-15T11:17:33.737Z,50.24
2022-09-15T11:19:11.525Z,50.87
2022-09-15T11:21:03.203Z,51.27
2022-09-15T11:22:38.595Z,49.05
2022-09-15T11:24:20.928Z,48.70
2022-09-15T11:25:54.463Z,48.22
2022-09-15T11:27:27.891Z,49.39
2022-09-15T11:29:04.197Z,50.40
2022-09-15T11:30:37.832Z,50.80
2022-09-15T11:32:11.645Z,50.63
2022-09-15T11:33:44.971Z,51.58
2022-09-15T11:35:37.467Z,52.69
2022-09-15T11:37:13.055Z,52.53
2022-09-15T11:38:49.015Z,50.61
2022-09-15T11:40:24.816Z,52.11
2022-09-15T11:42:02.649Z,51.80
2022-09-15T11:43:37.368Z,50.72
2022-09-15T11:45:14.879Z,48.65
2022-09-15T11:46:57.612Z,49.81
2022-09-15T11:48:33.532Z,49.37
2022-09-15T11:50:11.535Z,48.02
2022-09-15T11:51:50.609Z,45.97
2022-09-15T11:53:25.518Z,46.86
2022-09-15T11:55:01.020Z,48.45
2022-09-15T11:56:35.167Z,47.96
2022-09-15T11:58:16.332Z,49.68
2022-09-15T11:59:53.394Z,50.24
2022-09-15T12:01:27.942Z,49.53
2022-09-15T12:03:06.458Z,49.39
2022-09-15T12:04:40.833Z,48.14
2022-09-15T12:06:15.704Z,49.82
2022-09-15T12:07:51.555Z,51.27
2022-09-15T12:09:23.114Z,48.55
2022-09-15T12:10:59.012Z,50.49
2022-09-15T12:12:31.386Z,50.10
2022-09-15T12:14:03.965Z,51.18
2022-09-15T12:15:35.475Z,50.79
2022-09-15T12:17:12.031Z,51.24
2022-09-15T12:18:47.108Z,50.82
2022-09-15T12:20:21.755Z,49.88
2022-09-15T12:21:56.335Z,50.88
2022-09-15T12:23:32.753Z,50.87
2022-09-15T12:25:09.333Z,49.89
2022-09-15T12:26:43.437Z,50.33
2022-09-15T12:28:37.459Z,50.56
2022-09-15T12:30:30.345Z,50.38
2022-09-15T12:32:19.592Z,49.89
2022-09-15T12:33:55.082Z,51.70
2022-09-15T12:35:31.135Z,50.42
2022-09-15T12:37:08.008Z,51.63
2022-09-15T12:38:40.472Z,51.84
2022-09-15T12:40:35.718Z,51.77
2022-09-15T12:42:22.551Z,51.69
2022-09-15T12:43:56.172Z,52.17
2022-09-15T12:45:29.173Z,52.53
2022-09-15T12:47:01.507Z,53.30
2022-09-15T12:48:34.323Z,53.59
2022-09-15T12:50:22.311Z,54.06
2022-09-15T12:51:54.555Z,54.53
2022-09-15T12:53:28.238Z,54.83
2022-09-15T12:55:01.866Z,55.40
2022-09-15T12:56:34.128Z,55.33
2022-09-15T12:58:08.240Z,55.25
2022-09-15T12:59:41.306Z,55.60
2022-09-15T13:01:31.636Z,55.75
2022-09-15T13:03:04.619Z,56.56
2022-09-15T13:04:51.674Z,56.66
2022-09-15T13:06:23.700Z,58.99
2022-09-15T13:07:56.104Z,60.12
2022-09-15T13:09:28.491Z,59.79
2022-09-15T13:11:01.134Z,61.20
2022-09-15T13:12:36.219Z,61.94
2022-09-15T13:14:11.376Z,62.41
2022-09-15T13:15:46.569Z,63.35
2022-09-15T13:17:19.218Z,64.03
2022-09-15T13:18:55.425Z,62.93
2022-09-15T13:20:31.862Z,63.61
2022-09-15T13:22:05.039Z,65.90
2022-09-15T13:23:39.952Z,66.12
2022-09-15T13:25:15.739Z,63.97
2022-09-15T13:26:48.924Z,64.66
2022-09-15T13:28:21.328Z,65.51
2022-09-15T13:29:57.058Z,65.73
2022-09-15T13:31:37.643Z,65.36
2022-09-15T13:33:15.792Z,65.39
2022-09-15T13:35:04.247Z,65.14
2022-09-15T13:38:55.567Z,64.65
2022-09-15T13:40:44.151Z,64.72
2022-09-15T13:42:25.862Z,64.72
2022-09-15T13:44:05.629Z,64.73
2022-09-15T13:45:49.506Z,64.73
2022-09-15T13:47:31.331Z,64.54
2022-09-15T13:49:14.504Z,64.65
2022-09-15T13:50:49.646Z,64.23
2022-09-15T13:52:24.098Z,64.46
2022-09-15T13:53:57.732Z,64.02
2022-09-15T13:55:31.485Z,63.41
2022-09-15T13:57:04.583Z,64.21
2022-09-15T14:00:29.765Z,62.73
2022-09-15T14:02:01.467Z,62.45
2022-09-15T14:03:39.093Z,61.94
2022-09-15T14:05:11.588Z,61.66
2022-09-15T14:06:44.353Z,61.55
2022-09-15T14:08:20.951Z,60.89
2022-09-15T14:09:52.635Z,61.89
2022-09-15T14:11:26.669Z,59.44
2022-09-15T14:12:59.256Z,60.10
2022-09-15T14:14:36.473Z,60.00
2022-09-15T14:16:19.323Z,58.16
2022-09-15T14:17:51.242Z,57.94
2022-09-15T14:19:33.168Z,57.52
2022-09-15T14:21:05.902Z,57.59
2022-09-15T14:22:40.786Z,56.95
2022-09-15T14:24:25.496Z,56.04
2022-09-15T14:25:59.625Z,54.26
2022-09-15T14:27:33.693Z,55.32
2022-09-15T14:29:06.453Z,55.74
2022-09-15T14:30:38.566Z,52.79
2022-09-15T14:32:12.965Z,55.02
2022-09-15T14:33:45.476Z,55.92
2022-09-15T14:35:19.944Z,53.74
2022-09-15T14:36:59.262Z,52.94
2022-09-15T14:38:30.711Z,53.56
2022-09-15T14:40:16.631Z,53.05
2022-09-15T14:41:48.921Z,53.57
2022-09-15T14:43:24.658Z,53.33
2022-09-15T14:46:47.925Z,52.79
2022-09-15T14:48:25.559Z,52.34
2022-09-15T14:50:14.818Z,52.61
2022-09-15T14:51:49.255Z,52.95
2022-09-15T14:53:23.196Z,51.85
2022-09-15T14:54:57.747Z,53.03
2022-09-15T14:56:32.651Z,53.31
2022-09-15T14:58:07.010Z,50.61
2022-09-15T14:59:41.562Z,52.06
2022-09-15T15:01:15.753Z,51.89
2022-09-15T15:02:54.226Z,51.81
2022-09-15T15:04:30.867Z,51.22
2022-09-15T15:06:28.363Z,51.37
2022-09-15T15:08:01.577Z,50.71
2022-09-15T15:09:38.070Z,50.10
2022-09-15T15:11:12.946Z,50.57
2022-09-15T15:12:46.174Z,49.91
2022-09-15T15:14:18.314Z,50.10
2022-09-15T15:15:49.888Z,49.79
2022-09-15T15:17:27.281Z,50.76
2022-09-15T15:18:58.874Z,50.67
2022-09-15T15:20:30.500Z,48.81
2022-09-15T15:22:14.773Z,48.80
2022-09-15T15:23:47.755Z,48.51
2022-09-15T15:25:24.923Z,49.68
2022-09-15T15:26:56.422Z,49.27
2022-09-15T15:28:31.939Z,49.49
2022-09-15T15:30:18.259Z,48.15
2022-09-15T15:31:51.406Z,49.14
2022-09-15T15:33:24.478Z,48.36
2022-09-15T15:34:59.780Z,49.16
2022-09-15T15:36:33.244Z,49.32
2022-09-15T15:38:12.775Z,49.19
2022-09-15T15:39:46.742Z,49.43
2022-09-15T15:41:20.221Z,50.47
2022-09-15T15:42:54.247Z,50.13
2022-09-15T15:44:27.923Z,49.67
2022-09-15T15:46:03.548Z,48.53
2022-09-15T15:47:35.866Z,48.38
2022-09-15T15:49:09.508Z,47.88
2022-09-15T15:50:44.001Z,48.00
2022-09-15T15:52:15.668Z,48.56
2022-09-15T15:53:47.733Z,48.72
2022-09-15T15:55:21.463Z,48.65
2022-09-15T15:56:53.201Z,48.96
2022-09-15T15:58:24.751Z,48.37
2022-09-15T15:59:57.033Z,48.50
2022-09-15T16:01:28.687Z,48.44
2022-09-15T16:03:01.472Z,48.35
2022-09-15T16:04:33.004Z,49.17
2022-09-15T16:06:04.707Z,48.82
2022-09-15T16:07:37.451Z,49.18
2022-09-15T16:09:10.631Z,50.00
2022-09-15T16:10:46.026Z,50.30
2022-09-15T16:12:17.551Z,50.62
2022-09-15T16:13:49.137Z,50.36
2022-09-15T16:15:21.343Z,51.27
2022-09-15T16:16:58.921Z,51.14
2022-09-15T16:18:30.503Z,51.31
2022-09-15T16:20:02.342Z,52.22
2022-09-15T16:21:37.008Z,52.44
2022-09-15T16:23:12.609Z,52.44
2022-09-15T16:24:44.456Z,52.70
2022-09-15T16:26:18.490Z,52.83
2022-09-15T16:27:49.958Z,53.05
2022-09-15T16:29:26.121Z,53.52
2022-09-15T16:30:57.735Z,53.75
2022-09-15T16:32:31.375Z,53.79
2022-09-15T16:34:03.101Z,53.73
2022-09-15T16:35:37.340Z,53.57
2022-09-15T16:37:09.066Z,53.82
2022-09-15T16:38:43.522Z,54.19
2022-09-15T16:40:15.340Z,54.11
2022-09-15T16:41:48.321Z,54.47
2022-09-15T16:43:23.222Z,55.07
2022-09-15T16:44:55.031Z,55.27
2022-09-15T16:46:26.859Z,55.71
2022-09-15T16:47:58.877Z,55.83
2022-09-15T16:49:30.451Z,55.73
2022-09-15T16:51:21.933Z,55.96
2022-09-15T16:52:53.496Z,56.07
2022-09-15T16:54:25.473Z,56.09
2022-09-15T16:55:56.974Z,56.21
2022-09-15T16:57:29.906Z,56.10
2022-09-15T16:59:01.731Z,56.13
2022-09-15T17:00:34.871Z,56.62
2022-09-15T17:02:12.637Z,56.78
2022-09-15T17:03:44.721Z,56.22
2022-09-15T17:05:18.543Z,56.31
2022-09-15T17:06:49.999Z,55.74
2022-09-15T17:08:22.785Z,55.36
2022-09-15T17:09:54.305Z,54.91
2022-09-15T17:11:26.293Z,55.77
2022-09-15T17:12:59.143Z,56.02
2022-09-15T17:14:30.591Z,54.92
2022-09-15T17:16:02.539Z,53.20
2022-09-15T17:17:34.509Z,52.89
2022-09-15T17:19:06.174Z,53.73
2022-09-15T17:20:39.377Z,53.38
2022-09-15T17:22:11.558Z,52.70
2022-09-15T17:23:45.053Z,51.53
2022-09-15T17:25:21.502Z,51.85
2022-09-15T17:26:53.277Z,51.82
2022-09-15T17:28:27.051Z,50.51
2022-09-15T17:29:59.223Z,50.82
2022-09-15T17:31:32.443Z,50.21
2022-09-15T17:33:04.990Z,50.14
2022-09-15T17:34:39.405Z,50.43
2022-09-15T17:36:11.082Z,50.63
2022-09-15T17:37:42.587Z,51.38
2022-09-15T17:39:14.030Z,50.40
2022-09-15T17:40:45.821Z,50.29
2022-09-15T17:42:17.377Z,50.33
2022-09-15T17:43:50.536Z,50.80
2022-09-15T17:45:23.072Z,50.97
2022-09-15T17:46:54.567Z,51.32
2022-09-15T17:48:26.360Z,51.40
2022-09-15T17:49:57.782Z,51.51
2022-09-15T17:51:29.425Z,51.64
2022-09-15T17:53:01.112Z,52.06
2022-09-15T17:54:32.641Z,52.32
2022-09-15T17:56:04.159Z,52.83
2022-09-15T17:57:35.729Z,52.81
2022-09-15T17:59:10.875Z,52.98
2022-09-15T18:00:45.278Z,53.39
2022-09-15T18:02:17.927Z,53.42
2022-09-15T18:03:49.980Z,53.74
2022-09-15T18:05:23.573Z,53.80
2022-09-15T18:06:55.013Z,53.90
2022-09-15T18:08:27.179Z,54.46
2022-09-15T18:09:58.765Z,53.85
2022-09-15T18:11:30.291Z,53.45
2022-09-15T18:13:02.216Z,53.84
2022-09-15T18:14:35.082Z,53.71
2022-09-15T18:16:10.878Z,53.60
2022-09-15T18:17:42.783Z,54.07
2022-09-15T18:19:14.319Z,54.31
2022-09-15T18:20:46.393Z,53.87
2022-09-15T18:22:18.830Z,53.70
2022-09-15T18:23:50.293Z,53.89
2022-09-15T18:25:25.480Z,54.06
2022-09-15T18:26:56.960Z,54.15
2022-09-15T18:28:28.520Z,54.15
2022-09-15T18:30:01.739Z,54.37
2022-09-15T18:31:33.372Z,54.45
2022-09-15T18:33:04.905Z,54.62
2022-09-15T18:34:36.375Z,54.73
2022-09-15T18:36:07.906Z,55.09
2022-09-15T18:37:39.419Z,55.15
2022-09-15T18:39:11.891Z,55.28
2022-09-15T18:40:44.164Z,55.51
2022-09-15T18:42:15.651Z,55.22
2022-09-15T18:43:50.174Z,55.67
2022-09-15T18:45:24.349Z,55.81
2022-09-15T18:46:55.819Z,55.87
2022-09-15T18:48:30.406Z,55.86
2022-09-15T18:50:03.619Z,55.68
2022-09-15T18:51:51.186Z,55.93
2022-09-15T18:53:23.688Z,56.20
2022-09-15T18:54:55.161Z,56.21
2022-09-15T18:56:26.658Z,56.42
2022-09-15T18:58:00.999Z,56.50
2022-09-15T18:59:32.915Z,56.22
2022-09-15T19:01:06.024Z,56.47
2022-09-15T19:02:37.646Z,56.72
2022-09-15T19:04:09.350Z,56.72
2022-09-15T19:05:40.960Z,56.63
2022-09-15T19:07:12.598Z,56.62
2022-09-15T19:08:44.081Z,56.81
2022-09-15T19:10:17.306Z,56.87
2022-09-15T19:11:48.736Z,57.07
2022-09-15T19:13:20.258Z,57.00
2022-09-15T19:14:51.746Z,57.56
2022-09-15T19:16:34.570Z,57.66
2022-09-15T19:18:12.031Z,57.84
2022-09-15T19:19:43.912Z,58.34
2022-09-15T19:21:15.848Z,58.27
2022-09-15T19:22:47.541Z,58.44
2022-09-15T19:24:19.114Z,58.56
2022-09-15T19:25:50.706Z,58.79
2022-09-15T19:27:22.473Z,59.41
2022-09-15T19:28:54.601Z,59.27
2022-09-15T19:30:26.231Z,59.10
2022-09-15T19:31:59.139Z,59.35
2022-09-15T19:33:30.690Z,59.85
2022-09-15T19:35:02.511Z,59.99
2022-09-15T19:36:34.031Z,60.15
2022-09-15T19:38:05.759Z,60.17
2022-09-15T19:39:37.350Z,60.36
2022-09-15T19:41:11.459Z,60.00
2022-09-15T19:42:43.737Z,60.24
2022-09-15T19:44:16.121Z,60.35
2022-09-15T19:45:47.636Z,60.66
2022-09-15T19:47:20.488Z,60.66
2022-09-15T19:48:53.194Z,60.94
2022-09-15T19:50:24.977Z,61.39
2022-09-15T19:51:56.595Z,61.06
2022-09-15T19:53:28.046Z,61.46
2022-09-15T19:54:59.535Z,62.04
2022-09-15T19:56:31.067Z,62.03
2022-09-15T19:58:02.751Z,62.45
2022-09-15T19:59:34.246Z,62.51
2022-09-15T20:01:05.786Z,62.30
2022-09-15T20:02:39.403Z,62.99
2022-09-15T20:04:11.733Z,62.57
2022-09-15T20:05:48.479Z,62.74
2022-09-15T20:07:19.950Z,63.09
2022-09-15T20:08:52.087Z,62.91
2022-09-15T20:10:23.768Z,62.95
2022-09-15T20:11:55.264Z,63.09
2022-09-15T20:13:26.765Z,63.00
2022-09-15T20:14:58.330Z,63.49
2022-09-15T20:16:30.433Z,63.72
2022-09-15T20:18:03.636Z,63.63